createdAt,value
2022-10-28T00:01:37.716Z,60.23
2022-10-28T00:04:06.669Z,60.51
2022-10-28T00:06:38.450Z,60.35
2022-10-28T00:09:09.682Z,60.21
2022-10-28T00:11:40.343Z,60.24
2022-10-28T00:14:09.594Z,60.33
2022-10-28T00:16:39.114Z,60.36
2022-10-28T00:19:08.836Z,60.45
2022-10-28T00:21:40.484Z,60.29
2022-10-28T00:24:11.071Z,60.23
2022-10-28T00:26:43.162Z,60.56
2022-10-28T00:29:14.676Z,60.29
2022-10-28T00:31:44.101Z,60.45
2022-10-28T00:34:14.764Z,60.09
2022-10-28T00:36:46.490Z,60.38
2022-10-28T00:39:17.031Z,60.30
2022-10-28T00:41:48.096Z,60.43
2022-10-28T00:44:55.968Z,60.42
2022-10-28T00:47:41.482Z,60.21
2022-10-28T00:50:17.769Z,60.50
2022-10-28T00:52:52.371Z,60.18
2022-10-28T00:55:23.236Z,60.20
2022-10-28T00:57:59.293Z,60.21
2022-10-28T01:00:30.676Z,60.44
2022-10-28T01:02:59.140Z,60.32
2022-10-28T01:05:30.354Z,60.33
2022-10-28T01:08:06.072Z,60.27
2022-10-28T01:10:49.798Z,60.39
2022-10-28T01:13:35.501Z,60.27
2022-10-28T01:16:15.271Z,60.22
2022-10-28T01:18:50.890Z,60.32
2022-10-28T01:21:44.667Z,60.63
2022-10-28T01:24:30.017Z,60.22
2022-10-28T01:27:32.803Z,60.32
2022-10-28T01:30:15.232Z,60.31
2022-10-28T01:32:53.703Z,60.26
2022-10-28T01:38:15.974Z,60.38
2022-10-28T01:40:48.115Z,60.40
2022-10-28T01:43:22.961Z,60.37
2022-10-28T01:45:56.555Z,60.28
2022-10-28T01:48:34.128Z,60.20
2022-10-28T01:51:09.700Z,60.43
2022-10-28T01:53:41.934Z,60.58
2022-10-28T01:56:15.587Z,60.28
2022-10-28T01:58:46.279Z,60.45
2022-10-28T02:01:15.376Z,60.28
2022-10-28T02:03:47.778Z,60.26
2022-10-28T02:06:21.763Z,60.62
2022-10-28T02:09:06.471Z,60.51
2022-10-28T02:11:50.144Z,60.70
2022-10-28T02:14:35.794Z,60.52
2022-10-28T02:17:15.617Z,60.54
2022-10-28T02:19:53.731Z,60.39
2022-10-28T02:22:28.683Z,60.38
2022-10-28T02:25:04.392Z,60.42
2022-10-28T02:27:38.889Z,60.54
2022-10-28T02:30:12.310Z,60.56
2022-10-28T02:32:45.225Z,60.58
2022-10-28T02:35:20.353Z,60.53
2022-10-28T02:37:52.154Z,60.39
2022-10-28T02:40:24.687Z,60.31
2022-10-28T02:42:57.835Z,60.64
2022-10-28T02:45:32.585Z,60.54
2022-10-28T02:48:05.679Z,60.35
2022-10-28T02:50:39.642Z,60.59
2022-10-28T02:53:15.562Z,60.47
2022-10-28T02:55:47.818Z,60.37
2022-10-28T02:58:17.052Z,60.55
2022-10-28T03:00:46.106Z,60.47
2022-10-28T03:03:18.080Z,60.25
2022-10-28T03:05:47.913Z,60.56
2022-10-28T03:08:16.360Z,60.50
2022-10-28T03:10:44.928Z,60.44
2022-10-28T03:13:13.160Z,60.47
2022-10-28T03:15:41.435Z,60.71
2022-10-28T03:18:10.526Z,60.75
2022-10-28T03:20:41.358Z,60.40
2022-10-28T03:23:11.417Z,60.53
2022-10-28T03:25:39.773Z,60.58
2022-10-28T03:28:08.401Z,60.38
2022-10-28T03:30:38.513Z,60.43
2022-10-28T03:33:06.961Z,60.45
2022-10-28T03:35:35.075Z,60.46
2022-10-28T03:38:03.823Z,60.68
2022-10-28T03:40:34.952Z,60.69
2022-10-28T03:43:04.477Z,60.73
2022-10-28T03:45:32.569Z,60.58
2022-10-28T03:48:01.873Z,60.48
2022-10-28T03:50:29.881Z,60.72
2022-10-28T03:52:57.854Z,60.58
2022-10-28T03:55:25.992Z,60.67
2022-10-28T03:57:55.810Z,60.46
2022-10-28T04:00:24.075Z,60.42
2022-10-28T04:02:52.831Z,60.57
2022-10-28T04:05:21.841Z,60.51
2022-10-28T04:07:49.899Z,60.61
2022-10-28T04:10:18.383Z,60.73
2022-10-28T04:12:46.480Z,60.76
2022-10-28T04:15:16.773Z,60.64
2022-10-28T04:17:45.681Z,60.41
2022-10-28T04:20:14.428Z,60.65
2022-10-28T04:22:42.939Z,60.56
2022-10-28T04:25:12.837Z,60.53
2022-10-28T04:27:40.956Z,60.64
2022-10-28T04:30:10.497Z,60.56
2022-10-28T04:32:39.961Z,60.71
2022-10-28T04:35:09.974Z,60.57
2022-10-28T04:37:39.491Z,60.48
2022-10-28T04:40:13.283Z,60.56
2022-10-28T04:42:43.984Z,60.54
2022-10-28T04:45:15.199Z,60.49
2022-10-28T04:47:48.182Z,60.77
2022-10-28T04:50:25.219Z,60.74
2022-10-28T04:52:53.519Z,60.56
2022-10-28T04:55:22.422Z,60.67
2022-10-28T04:58:01.470Z,60.59
2022-10-28T05:00:39.738Z,60.54
2022-10-28T05:03:09.556Z,60.80
2022-10-28T05:05:41.024Z,60.72
2022-10-28T05:08:10.619Z,60.66
2022-10-28T05:10:38.830Z,60.73
2022-10-28T05:13:07.176Z,60.75
2022-10-28T05:15:35.359Z,60.45
2022-10-28T05:18:09.030Z,60.58
2022-10-28T05:20:41.711Z,60.75
2022-10-28T05:23:09.959Z,60.75
2022-10-28T05:25:38.793Z,60.94
2022-10-28T05:28:07.626Z,60.89
2022-10-28T05:30:37.065Z,60.64
2022-10-28T05:33:06.122Z,60.66
2022-10-28T05:35:36.151Z,60.58
2022-10-28T05:38:04.274Z,60.66
2022-10-28T05:40:34.544Z,60.68
2022-10-28T05:43:06.656Z,60.72
2022-10-28T05:45:34.649Z,60.84
2022-10-28T05:48:04.187Z,60.88
2022-10-28T05:50:32.620Z,60.61
2022-10-28T05:53:02.422Z,60.43
2022-10-28T05:55:31.737Z,60.81
2022-10-28T05:58:00.523Z,60.82
2022-10-28T06:00:29.090Z,60.88
2022-10-28T06:03:03.894Z,60.68
2022-10-28T06:05:32.325Z,60.83
2022-10-28T06:08:02.001Z,60.83
2022-10-28T06:10:30.268Z,60.61
2022-10-28T06:12:57.249Z,60.71
2022-10-28T06:15:25.913Z,60.79
2022-10-28T06:17:54.498Z,60.75
2022-10-28T06:20:22.719Z,60.81
2022-10-28T06:22:53.234Z,60.75
2022-10-28T06:25:24.258Z,60.70
2022-10-28T06:27:53.895Z,60.83
2022-10-28T06:30:22.426Z,60.78
2022-10-28T06:32:50.916Z,60.94
2022-10-28T06:35:20.844Z,60.44
2022-10-28T06:37:54.991Z,60.84
2022-10-28T06:40:26.574Z,60.72
2022-10-28T06:42:58.343Z,60.80
2022-10-28T06:45:26.971Z,60.86
2022-10-28T06:47:59.139Z,60.85
2022-10-28T06:50:27.601Z,60.68
2022-10-28T06:52:58.356Z,60.82
2022-10-28T06:55:28.641Z,60.66
2022-10-28T06:58:01.058Z,60.87
2022-10-28T07:03:00.153Z,60.64
2022-10-28T07:05:30.120Z,60.73
2022-10-28T07:07:58.154Z,60.82
2022-10-28T07:10:27.471Z,60.63
2022-10-28T07:12:55.711Z,60.76
2022-10-28T07:15:23.957Z,60.76
2022-10-28T07:17:55.112Z,60.77
2022-10-28T07:20:23.345Z,60.86
2022-10-28T07:22:57.214Z,60.61
2022-10-28T07:25:25.202Z,60.61
2022-10-28T07:27:55.718Z,60.63
2022-10-28T07:30:24.209Z,60.93
2022-10-28T07:32:52.754Z,60.97
2022-10-28T07:35:21.426Z,60.94
2022-10-28T07:37:49.524Z,60.72
2022-10-28T07:40:18.079Z,60.94
2022-10-28T07:42:46.001Z,60.81
2022-10-28T07:45:16.769Z,60.96
2022-10-28T07:47:45.265Z,60.81
2022-10-28T07:50:17.155Z,60.92
2022-10-28T07:52:46.670Z,60.84
2022-10-28T07:55:15.754Z,60.89
2022-10-28T07:57:43.925Z,61.07
2022-10-28T08:00:12.769Z,60.79
2022-10-28T08:02:42.774Z,60.71
2022-10-28T08:05:11.378Z,60.86
2022-10-28T08:07:40.794Z,60.93
2022-10-28T08:10:10.376Z,60.81
2022-10-28T08:12:38.529Z,60.92
2022-10-28T08:15:09.780Z,60.82
2022-10-28T08:17:38.457Z,60.90
2022-10-28T08:20:08.838Z,60.78
2022-10-28T08:22:36.877Z,60.93
2022-10-28T08:25:05.472Z,60.62
2022-10-28T08:27:34.320Z,60.94
2022-10-28T08:30:02.678Z,60.90
2022-10-28T08:32:30.729Z,60.83
2022-10-28T08:34:59.040Z,60.82
2022-10-28T08:37:29.700Z,60.72
2022-10-28T08:39:58.597Z,60.66
2022-10-28T08:42:37.058Z,60.79
2022-10-28T08:45:27.173Z,60.76
2022-10-28T08:48:07.965Z,60.91
2022-10-28T08:50:45.320Z,60.74
2022-10-28T08:53:20.965Z,60.86
2022-10-28T08:55:52.784Z,60.76
2022-10-28T08:58:26.359Z,60.96
2022-10-28T09:00:56.795Z,60.88
2022-10-28T09:03:28.795Z,60.65
2022-10-28T09:06:04.235Z,60.60
2022-10-28T09:08:38.013Z,60.80
2022-10-28T09:11:34.070Z,60.77
2022-10-28T09:14:16.984Z,60.95
2022-10-28T09:16:48.991Z,60.76
2022-10-28T09:19:28.157Z,60.93
2022-10-28T09:22:10.689Z,61.05
2022-10-28T09:24:47.337Z,60.88
2022-10-28T09:27:24.387Z,60.95
2022-10-28T09:30:03.350Z,60.64
2022-10-28T09:32:41.563Z,60.70
2022-10-28T09:35:13.868Z,61.04
2022-10-28T09:37:49.151Z,60.76
2022-10-28T09:40:23.433Z,60.78
2022-10-28T09:43:00.979Z,60.83
2022-10-28T09:45:33.043Z,60.71
2022-10-28T09:48:06.268Z,60.81
2022-10-28T09:50:34.890Z,61.04
2022-10-28T09:53:11.088Z,60.67
2022-10-28T09:55:40.881Z,60.75
2022-10-28T09:58:09.529Z,60.78
2022-10-28T10:00:38.738Z,60.56
2022-10-28T10:03:08.552Z,61.09
2022-10-28T10:05:42.781Z,61.00
2022-10-28T10:08:14.509Z,60.79
2022-10-28T10:10:50.324Z,60.78
2022-10-28T10:13:22.769Z,60.93
2022-10-28T10:15:56.851Z,60.76
2022-10-28T10:18:29.388Z,60.83
2022-10-28T10:20:59.392Z,60.99
2022-10-28T10:23:32.821Z,61.08
2022-10-28T10:26:09.567Z,60.80
2022-10-28T10:28:44.963Z,60.84
2022-10-28T10:31:20.780Z,60.51
2022-10-28T10:33:53.034Z,60.91
2022-10-28T10:36:23.926Z,60.63
2022-10-28T10:38:55.808Z,60.64
2022-10-28T10:41:39.212Z,60.87
2022-10-28T10:44:32.110Z,60.70
2022-10-28T10:47:21.366Z,60.84
2022-10-28T10:49:52.411Z,60.88
2022-10-28T10:52:26.490Z,60.83
2022-10-28T10:55:05.118Z,60.77
2022-10-28T10:57:35.599Z,60.71
2022-10-28T11:00:05.280Z,60.78
2022-10-28T11:02:37.316Z,60.76
2022-10-28T11:05:09.097Z,60.81
2022-10-28T11:07:40.494Z,60.65
2022-10-28T11:10:22.656Z,60.86
2022-10-28T11:12:56.022Z,60.77
2022-10-28T11:15:30.068Z,60.71
2022-10-28T11:18:02.506Z,60.71
2022-10-28T11:20:47.314Z,60.61
2022-10-28T11:23:38.905Z,61.06
2022-10-28T11:26:12.497Z,60.60
2022-10-28T11:29:07.701Z,60.85
2022-10-28T11:32:20.526Z,60.97
2022-10-28T11:35:14.078Z,60.89
2022-10-28T11:37:58.776Z,60.79
2022-10-28T11:40:38.254Z,60.54
2022-10-28T11:43:25.487Z,60.80
2022-10-28T11:46:05.237Z,60.84
2022-10-28T11:48:46.276Z,60.64
2022-10-28T11:51:27.263Z,60.84
2022-10-28T11:54:22.335Z,60.60
2022-10-28T11:56:55.698Z,60.54
2022-10-28T11:59:47.269Z,60.67
2022-10-28T12:02:37.598Z,61.01
2022-10-28T12:05:19.035Z,60.91
2022-10-28T12:08:15.653Z,60.65
2022-10-28T12:10:57.600Z,60.84
2022-10-28T12:13:34.551Z,60.59
2022-10-28T12:16:09.206Z,60.89
2022-10-28T12:18:48.111Z,60.60
2022-10-28T12:21:29.545Z,60.61
2022-10-28T12:24:00.280Z,60.56
2022-10-28T12:26:37.415Z,60.79
2022-10-28T12:29:09.861Z,60.62
2022-10-28T12:31:45.588Z,60.58
2022-10-28T12:34:21.796Z,60.79
2022-10-28T12:36:57.674Z,60.85
2022-10-28T12:42:33.308Z,60.75
2022-10-28T12:45:07.992Z,60.79
2022-10-28T12:47:44.148Z,60.74
2022-10-28T12:50:22.514Z,60.87
2022-10-28T12:53:00.534Z,60.64
2022-10-28T12:55:35.150Z,60.68
2022-10-28T12:58:07.847Z,60.75
2022-10-28T13:00:41.675Z,60.51
2022-10-28T13:03:14.303Z,60.88
2022-10-28T13:05:50.002Z,60.37
2022-10-28T13:08:38.275Z,60.62
2022-10-28T13:11:42.496Z,60.72
2022-10-28T13:14:24.025Z,60.64
2022-10-28T13:17:11.968Z,60.36
2022-10-28T13:19:54.511Z,60.48
2022-10-28T13:22:39.499Z,60.52
2022-10-28T13:25:23.795Z,60.53
2022-10-28T13:27:59.835Z,60.48
2022-10-28T13:30:31.712Z,60.69
2022-10-28T13:33:06.845Z,60.63
2022-10-28T13:35:36.511Z,60.61
2022-10-28T13:38:15.563Z,60.37
2022-10-28T13:41:21.021Z,60.69
2022-10-28T13:44:15.331Z,60.44
2022-10-28T13:47:20.943Z,60.65
2022-10-28T13:50:34.245Z,60.57
2022-10-28T13:53:42.351Z,60.45
2022-10-28T13:56:40.719Z,60.43
2022-10-28T13:59:32.239Z,60.52
2022-10-28T14:02:34.413Z,60.53
2022-10-28T14:05:07.604Z,60.70
2022-10-28T14:07:38.408Z,60.34
2022-10-28T14:10:27.923Z,60.39
2022-10-28T14:13:01.220Z,60.44
2022-10-28T14:15:32.970Z,60.60
2022-10-28T14:18:15.927Z,60.44
2022-10-28T14:21:01.771Z,60.42
2022-10-28T14:24:08.327Z,60.77
2022-10-28T14:27:06.957Z,60.78
2022-10-28T14:29:44.950Z,60.45
2022-10-28T14:32:41.500Z,60.70
2022-10-28T14:35:25.526Z,60.49
2022-10-28T14:38:28.247Z,60.67
2022-10-28T14:41:31.679Z,60.78
2022-10-28T14:44:18.317Z,60.44
2022-10-28T14:47:04.932Z,60.57
2022-10-28T14:49:36.622Z,60.63
2022-10-28T14:52:13.525Z,60.55
2022-10-28T14:54:49.786Z,60.81
2022-10-28T14:57:22.413Z,60.28
2022-10-28T14:59:56.025Z,60.57
2022-10-28T15:02:30.420Z,60.85
2022-10-28T15:05:04.181Z,60.69
2022-10-28T15:07:37.827Z,60.35
2022-10-28T15:10:15.504Z,60.46
2022-10-28T15:12:46.686Z,60.46
2022-10-28T15:15:20.820Z,60.51
2022-10-28T15:17:51.684Z,60.76
2022-10-28T15:20:28.973Z,60.72
2022-10-28T15:23:14.592Z,60.67
2022-10-28T15:25:52.604Z,60.26
2022-10-28T15:28:28.337Z,60.68
2022-10-28T15:30:57.654Z,60.52
2022-10-28T15:33:33.603Z,60.83
2022-10-28T15:36:18.300Z,60.59
2022-10-28T15:38:52.657Z,60.51
2022-10-28T15:41:47.924Z,60.94
2022-10-28T15:44:40.172Z,60.43
2022-10-28T15:47:30.295Z,60.72
2022-10-28T15:50:03.259Z,60.66
2022-10-28T15:52:36.864Z,60.71
2022-10-28T15:55:35.886Z,61.05
2022-10-28T15:58:38.115Z,61.09
2022-10-28T16:01:12.138Z,60.69
2022-10-28T16:03:45.518Z,60.85
2022-10-28T16:06:27.287Z,60.97
2022-10-28T16:09:19.677Z,60.80
2022-10-28T16:11:57.795Z,60.78
2022-10-28T16:14:36.420Z,60.98
2022-10-28T16:17:11.509Z,60.87
2022-10-28T16:19:43.961Z,60.91
2022-10-28T16:22:16.603Z,61.08
2022-10-28T16:24:44.601Z,60.91
2022-10-28T16:27:22.481Z,61.12
2022-10-28T16:29:51.125Z,60.81
2022-10-28T16:32:35.465Z,60.74
2022-10-28T16:35:06.491Z,60.81
2022-10-28T16:37:41.829Z,60.95
2022-10-28T16:43:02.982Z,60.88
2022-10-28T16:45:32.350Z,60.81
2022-10-28T16:48:00.705Z,60.82
2022-10-28T16:50:30.016Z,60.73
2022-10-28T16:53:01.418Z,60.68
2022-10-28T16:55:32.900Z,60.93
2022-10-28T16:58:05.896Z,60.96
2022-10-28T17:00:34.677Z,60.72
2022-10-28T17:03:05.490Z,60.98
2022-10-28T17:05:34.332Z,60.76
2022-10-28T17:08:09.878Z,60.82
2022-10-28T17:10:42.258Z,61.12
2022-10-28T17:13:19.530Z,60.87
2022-10-28T17:15:55.640Z,61.07
2022-10-28T17:18:24.335Z,61.07
2022-10-28T17:21:01.509Z,60.73
2022-10-28T17:23:32.595Z,60.76
2022-10-28T17:26:02.411Z,60.71
2022-10-28T17:28:30.617Z,60.73
2022-10-28T17:31:07.237Z,60.93
2022-10-28T17:33:35.541Z,60.87
2022-10-28T17:36:05.439Z,60.87
2022-10-28T17:38:38.059Z,60.85
2022-10-28T17:41:08.427Z,60.71
2022-10-28T17:43:36.789Z,60.69
2022-10-28T17:46:05.793Z,60.75
2022-10-28T17:48:34.143Z,60.74
2022-10-28T17:51:02.292Z,60.59
2022-10-28T17:53:36.140Z,60.74
2022-10-28T17:56:07.958Z,60.83
2022-10-28T17:58:37.261Z,60.66
2022-10-28T18:01:07.713Z,60.69
2022-10-28T18:03:39.368Z,60.80
2022-10-28T18:06:11.462Z,60.57
2022-10-28T18:08:43.256Z,60.45
2022-10-28T18:11:15.614Z,60.72
2022-10-28T18:13:49.166Z,60.85
2022-10-28T18:16:20.562Z,60.83
2022-10-28T18:18:51.122Z,60.79
2022-10-28T18:21:20.519Z,60.64
2022-10-28T18:23:53.279Z,60.90
2022-10-28T18:26:24.300Z,60.79
2022-10-28T18:28:56.507Z,60.63
2022-10-28T18:31:32.283Z,60.71
2022-10-28T18:34:02.532Z,60.59
2022-10-28T18:36:34.711Z,60.56
2022-10-28T18:39:03.810Z,60.57
2022-10-28T18:41:38.231Z,60.86
2022-10-28T18:44:08.190Z,60.70
2022-10-28T18:46:38.896Z,60.55
2022-10-28T18:49:09.396Z,60.54
2022-10-28T18:51:39.501Z,60.57
2022-10-28T18:54:07.931Z,60.65
2022-10-28T18:56:42.533Z,60.56
2022-10-28T18:59:15.225Z,60.88
2022-10-28T19:01:47.200Z,60.55
2022-10-28T19:04:17.051Z,60.69
2022-10-28T19:06:46.961Z,60.73
2022-10-28T19:09:16.057Z,60.73
2022-10-28T19:11:46.741Z,60.67
2022-10-28T19:14:15.231Z,60.44
2022-10-28T19:16:43.338Z,60.58
2022-10-28T19:19:11.772Z,60.68
2022-10-28T19:21:40.152Z,60.82
2022-10-28T19:24:09.052Z,60.73
2022-10-28T19:26:37.010Z,60.78
2022-10-28T19:29:14.807Z,60.76
2022-10-28T19:31:46.156Z,60.85
2022-10-28T19:34:15.383Z,60.74
2022-10-28T19:36:43.434Z,60.65
2022-10-28T19:39:11.388Z,60.74
2022-10-28T19:41:41.891Z,60.80
2022-10-28T19:44:14.387Z,60.69
2022-10-28T19:46:47.725Z,60.68
2022-10-28T19:49:25.606Z,60.78
2022-10-28T19:51:56.035Z,60.58
2022-10-28T19:54:28.572Z,60.71
2022-10-28T19:56:57.363Z,60.78
2022-10-28T19:59:27.871Z,60.67
2022-10-28T20:01:57.307Z,60.81
2022-10-28T20:04:28.232Z,60.92
2022-10-28T20:07:00.176Z,60.88
2022-10-28T20:09:29.207Z,60.90
2022-10-28T20:11:57.676Z,60.73
2022-10-28T20:14:30.140Z,60.86
2022-10-28T20:17:06.724Z,60.84
2022-10-28T20:19:40.106Z,61.05
2022-10-28T20:22:11.923Z,60.93
2022-10-28T20:24:41.055Z,60.60
2022-10-28T20:27:11.491Z,60.79
2022-10-28T20:29:49.440Z,60.90
2022-10-28T20:32:27.598Z,60.99
2022-10-28T20:34:57.186Z,60.73
2022-10-28T20:37:28.233Z,60.99
2022-10-28T20:39:59.048Z,61.07
2022-10-28T20:42:30.035Z,60.79
2022-10-28T20:45:00.965Z,60.76
2022-10-28T20:47:33.319Z,60.76
2022-10-28T20:50:02.108Z,60.98
2022-10-28T20:52:32.067Z,60.78
2022-10-28T20:55:02.466Z,60.99
2022-10-28T20:57:32.576Z,61.01
2022-10-28T21:00:08.145Z,60.89
2022-10-28T21:02:37.191Z,60.90
2022-10-28T21:05:07.520Z,61.04
2022-10-28T21:07:38.991Z,60.99
2022-10-28T21:10:10.122Z,61.09
2022-10-28T21:12:40.762Z,60.93
2022-10-28T21:15:14.193Z,61.25
2022-10-28T21:17:47.844Z,61.13
2022-10-28T21:20:18.562Z,60.90
2022-10-28T21:22:47.492Z,60.98
2022-10-28T21:25:20.562Z,60.91
2022-10-28T21:27:51.491Z,60.72
2022-10-28T21:30:21.014Z,61.14
2022-10-28T21:32:58.318Z,60.85
2022-10-28T21:35:29.145Z,61.25
2022-10-28T21:38:00.960Z,60.94
2022-10-28T21:40:29.366Z,60.90
2022-10-28T21:42:58.483Z,60.92
2022-10-28T21:45:28.565Z,60.96
2022-10-28T21:47:58.772Z,60.98
2022-10-28T21:50:29.008Z,61.20
2022-10-28T21:52:57.248Z,61.00
2022-10-28T21:55:41.553Z,61.19
2022-10-28T21:58:15.316Z,61.22
2022-10-28T22:00:46.980Z,61.11
2022-10-28T22:03:16.087Z,61.00
2022-10-28T22:05:53.315Z,61.29
2022-10-28T22:08:25.889Z,61.21
2022-10-28T22:11:01.714Z,61.15
2022-10-28T22:13:30.238Z,61.17
2022-10-28T22:16:01.439Z,61.08
2022-10-28T22:18:37.398Z,61.28
2022-10-28T22:21:14.519Z,60.89
2022-10-28T22:23:46.006Z,61.02
2022-10-28T22:26:17.794Z,61.25
2022-10-28T22:28:46.784Z,61.11
2022-10-28T22:31:27.115Z,61.20
2022-10-28T22:33:59.005Z,61.43
2022-10-28T22:36:37.803Z,61.26
2022-10-28T22:39:09.154Z,61.24
2022-10-28T22:41:40.459Z,60.96
2022-10-28T22:44:19.059Z,61.12
2022-10-28T22:46:51.078Z,61.05
2022-10-28T22:49:22.834Z,61.13
2022-10-28T22:51:55.002Z,61.36
2022-10-28T22:54:28.187Z,61.07
2022-10-28T22:56:58.051Z,61.26
2022-10-28T22:59:33.860Z,61.37
2022-10-28T23:02:03.711Z,61.36
2022-10-28T23:04:32.290Z,61.07
2022-10-28T23:07:04.159Z,61.24
2022-10-28T23:09:34.244Z,60.99
2022-10-28T23:12:06.541Z,61.27
2022-10-28T23:14:37.951Z,61.09
2022-10-28T23:17:14.118Z,61.04
2022-10-28T23:19:50.429Z,61.09
2022-10-28T23:22:21.286Z,61.14
2022-10-28T23:24:59.151Z,61.21
2022-10-28T23:27:28.947Z,61.17
2022-10-28T23:30:04.391Z,61.14
2022-10-28T23:32:38.387Z,61.14
2022-10-28T23:35:11.228Z,61.31
2022-10-28T23:37:39.899Z,61.06
2022-10-28T23:40:19.859Z,61.27
2022-10-28T23:42:50.017Z,61.07
2022-10-28T23:45:22.596Z,60.96
2022-10-28T23:47:57.185Z,61.27
2022-10-28T23:50:29.644Z,61.05
2022-10-28T23:53:09.443Z,61.24
2022-10-28T23:55:53.386Z,61.11
2022-10-28T23:58:26.823Z,61.30
